createdAt,value
2023-02-09T00:01:37.422Z,103352.16
2023-02-09T00:04:06.007Z,103350.50
2023-02-09T00:06:34.182Z,103351.30
2023-02-09T00:09:03.705Z,103354.70
2023-02-09T00:11:51.522Z,103353.10
2023-02-09T00:14:22.097Z,103350.74
2023-02-09T00:16:52.315Z,103349.54
2023-02-09T00:19:21.988Z,103350.82
2023-02-09T00:21:50.576Z,103351.39
2023-02-09T00:24:18.743Z,103348.23
2023-02-09T00:26:47.736Z,103346.00
2023-02-09T00:29:17.855Z,103343.21
2023-02-09T00:31:45.934Z,103342.82
2023-02-09T00:34:15.530Z,103342.85
2023-02-09T00:36:45.744Z,103343.02
2023-02-09T00:39:14.135Z,103344.48
2023-02-09T00:42:00.849Z,103348.56
2023-02-09T00:44:29.341Z,103347.30
2023-02-09T00:46:58.144Z,103341.60
2023-02-09T00:49:26.288Z,103339.06
2023-02-09T00:51:54.564Z,103337.15
2023-02-09T00:54:23.351Z,103332.86
2023-02-09T00:56:52.110Z,103334.90
2023-02-09T00:59:20.364Z,103332.54
2023-02-09T01:01:48.702Z,103332.02
2023-02-09T01:04:17.006Z,103337.70
2023-02-09T01:06:45.247Z,103339.55
2023-02-09T01:09:13.322Z,103336.21
2023-02-09T01:11:42.565Z,103328.90
2023-02-09T01:14:13.237Z,103324.44
2023-02-09T01:16:41.481Z,103320.81
2023-02-09T01:19:13.292Z,103321.44
2023-02-09T01:21:41.870Z,103321.02
2023-02-09T01:24:14.596Z,103315.93
2023-02-09T01:26:42.824Z,103314.50
2023-02-09T01:29:17.247Z,103313.80
2023-02-09T01:31:46.620Z,103307.75
2023-02-09T01:34:18.209Z,103307.45
2023-02-09T01:36:50.380Z,103309.66
2023-02-09T01:39:18.579Z,103308.04
2023-02-09T01:41:46.888Z,103303.98
2023-02-09T01:44:15.032Z,103299.71
2023-02-09T01:46:44.365Z,103295.71
2023-02-09T01:49:17.589Z,103294.74
2023-02-09T01:52:01.275Z,103291.02
2023-02-09T01:54:37.996Z,103294.76
2023-02-09T01:57:10.379Z,103299.23
2023-02-09T01:59:42.404Z,103298.79
2023-02-09T02:02:11.615Z,103300.69
2023-02-09T02:04:43.710Z,103299.83
2023-02-09T02:07:20.694Z,103301.09
2023-02-09T02:09:50.606Z,103305.91
2023-02-09T02:12:19.289Z,103307.58
2023-02-09T02:14:47.467Z,103309.92
2023-02-09T02:17:25.058Z,103313.33
2023-02-09T02:20:13.402Z,103312.63
2023-02-09T02:22:56.017Z,103317.16
2023-02-09T02:25:55.321Z,103312.19
2023-02-09T02:28:37.524Z,103316.03
2023-02-09T02:31:15.447Z,103315.36
2023-02-09T02:33:46.749Z,103312.38
2023-02-09T02:36:30.411Z,103306.89
2023-02-09T02:39:05.753Z,103305.40
2023-02-09T02:42:24.514Z,103310.19
2023-02-09T02:45:30.279Z,103311.08
2023-02-09T02:48:20.053Z,103308.00
2023-02-09T02:50:57.465Z,103299.66
2023-02-09T02:53:29.992Z,103295.52
2023-02-09T02:56:06.399Z,103292.36
2023-02-09T02:58:39.087Z,103293.61
2023-02-09T03:01:13.397Z,103288.88
2023-02-09T03:03:44.045Z,103288.15
2023-02-09T03:06:14.146Z,103286.22
2023-02-09T03:08:51.683Z,103275.48
2023-02-09T03:11:22.300Z,103277.81
2023-02-09T03:14:11.537Z,103272.41
2023-02-09T03:17:00.602Z,103272.84
2023-02-09T03:19:52.020Z,103273.89
2023-02-09T03:22:42.941Z,103274.96
2023-02-09T03:25:25.746Z,103275.50
2023-02-09T03:28:07.062Z,103271.56
2023-02-09T03:30:37.168Z,103278.96
2023-02-09T03:33:06.224Z,103279.17
2023-02-09T03:35:39.332Z,103281.65
2023-02-09T03:38:07.616Z,103280.39
2023-02-09T03:40:36.295Z,103279.52
2023-02-09T03:43:04.429Z,103286.09
2023-02-09T03:45:32.644Z,103282.83
2023-02-09T03:48:00.920Z,103282.18
2023-02-09T03:50:30.537Z,103277.33
2023-02-09T03:52:59.827Z,103277.31
2023-02-09T03:55:28.307Z,103278.16
2023-02-09T03:57:56.566Z,103277.05
2023-02-09T04:00:24.881Z,103274.91
2023-02-09T04:02:53.080Z,103272.71
2023-02-09T04:05:22.876Z,103273.05
2023-02-09T04:07:51.253Z,103272.91
2023-02-09T04:10:19.503Z,103269.30
2023-02-09T04:12:48.392Z,103264.75
2023-02-09T04:15:16.670Z,103267.38
2023-02-09T04:17:44.742Z,103262.44
2023-02-09T04:20:12.813Z,103262.02
2023-02-09T04:22:41.398Z,103261.78
2023-02-09T04:25:09.774Z,103260.05
2023-02-09T04:27:37.951Z,103262.67
2023-02-09T04:30:06.743Z,103263.34
2023-02-09T04:32:35.015Z,103267.95
2023-02-09T04:35:03.505Z,103270.98
2023-02-09T04:37:31.785Z,103275.08
2023-02-09T04:39:59.953Z,103275.30
2023-02-09T04:42:28.227Z,103276.06
2023-02-09T04:44:56.607Z,103272.77
2023-02-09T04:47:25.192Z,103269.63
2023-02-09T04:49:53.569Z,103270.75
2023-02-09T04:52:21.949Z,103273.91
2023-02-09T04:54:50.331Z,103273.11
2023-02-09T04:57:36.935Z,103276.89
2023-02-09T05:00:05.940Z,103270.50
2023-02-09T05:02:34.211Z,103269.38
2023-02-09T05:05:02.801Z,103265.66
2023-02-09T05:07:31.067Z,103266.46
2023-02-09T05:09:59.143Z,103266.10
2023-02-09T05:12:27.426Z,103266.77
2023-02-09T05:14:55.897Z,103268.55
2023-02-09T05:17:24.072Z,103270.89
2023-02-09T05:19:52.582Z,103273.44
2023-02-09T05:22:20.932Z,103274.56
2023-02-09T05:24:49.311Z,103278.00
2023-02-09T05:27:17.795Z,103276.79
2023-02-09T05:29:45.868Z,103282.02
2023-02-09T05:32:14.191Z,103280.57
2023-02-09T05:34:42.626Z,103282.34
2023-02-09T05:37:11.110Z,103280.70
2023-02-09T05:39:39.488Z,103282.71
2023-02-09T05:42:17.090Z,103286.46
2023-02-09T05:44:48.606Z,103286.48
2023-02-09T05:47:19.739Z,103285.96
2023-02-09T05:49:48.711Z,103285.02
2023-02-09T05:52:17.559Z,103284.88
2023-02-09T05:54:48.497Z,103283.38
2023-02-09T05:57:17.903Z,103283.09
2023-02-09T05:59:46.075Z,103287.26
2023-02-09T06:02:14.277Z,103288.98
2023-02-09T06:04:43.343Z,103292.10
2023-02-09T06:07:12.112Z,103298.98
2023-02-09T06:09:40.436Z,103294.30
2023-02-09T06:12:08.890Z,103295.73
2023-02-09T06:14:37.169Z,103288.78
2023-02-09T06:17:05.644Z,103283.36
2023-02-09T06:19:33.820Z,103279.98
2023-02-09T06:22:02.508Z,103272.88
2023-02-09T06:24:30.583Z,103275.86
2023-02-09T06:26:58.956Z,103275.05
2023-02-09T06:29:27.649Z,103271.88
2023-02-09T06:31:56.153Z,103271.09
2023-02-09T06:34:25.734Z,103265.84
2023-02-09T06:36:54.018Z,103265.87
2023-02-09T06:39:22.596Z,103266.27
2023-02-09T06:41:50.669Z,103266.46
2023-02-09T06:44:19.990Z,103266.40
2023-02-09T06:46:49.065Z,103268.04
2023-02-09T06:49:17.244Z,103271.86
2023-02-09T06:51:45.618Z,103270.36
2023-02-09T06:54:14.103Z,103273.31
2023-02-09T06:56:42.172Z,103275.79
2023-02-09T06:59:10.493Z,103279.70
2023-02-09T07:01:38.964Z,103283.19
2023-02-09T07:04:07.414Z,103286.92
2023-02-09T07:06:36.126Z,103292.77
2023-02-09T07:09:04.989Z,103293.21
2023-02-09T07:11:34.395Z,103294.91
2023-02-09T07:14:03.488Z,103301.11
2023-02-09T07:16:31.662Z,103304.36
2023-02-09T07:19:00.582Z,103301.54
2023-02-09T07:21:28.835Z,103303.16
2023-02-09T07:23:57.101Z,103306.80
2023-02-09T07:26:25.589Z,103314.39
2023-02-09T07:28:53.663Z,103314.91
2023-02-09T07:31:21.838Z,103315.03
2023-02-09T07:33:50.316Z,103309.07
2023-02-09T07:36:18.397Z,103309.23
2023-02-09T07:38:47.118Z,103311.77
2023-02-09T07:41:20.741Z,103318.46
2023-02-09T07:43:49.044Z,103321.63
2023-02-09T07:46:20.047Z,103322.08
2023-02-09T07:48:49.539Z,103320.32
2023-02-09T07:51:21.048Z,103318.86
2023-02-09T07:53:49.124Z,103317.88
2023-02-09T07:56:18.015Z,103320.63
2023-02-09T07:58:46.186Z,103322.61
2023-02-09T08:01:15.088Z,103319.48
2023-02-09T08:03:46.845Z,103316.83
2023-02-09T08:06:42.832Z,103318.80
2023-02-09T08:09:15.072Z,103317.65
2023-02-09T08:11:58.935Z,103324.91
2023-02-09T08:14:31.120Z,103326.39
2023-02-09T08:17:23.485Z,103332.05
2023-02-09T08:20:04.512Z,103328.95
2023-02-09T08:22:37.654Z,103331.23
2023-02-09T08:25:06.657Z,103324.40
2023-02-09T08:27:37.291Z,103326.22
2023-02-09T08:30:06.618Z,103329.69
2023-02-09T08:32:34.955Z,103329.13
2023-02-09T08:35:04.058Z,103334.64
2023-02-09T08:37:32.946Z,103334.27
2023-02-09T08:40:01.225Z,103329.80
2023-02-09T08:42:29.602Z,103333.21
2023-02-09T08:44:57.672Z,103338.45
2023-02-09T08:47:25.746Z,103341.25
2023-02-09T08:49:53.817Z,103335.98
2023-02-09T08:52:22.104Z,103331.58
2023-02-09T08:54:50.490Z,103332.20
2023-02-09T08:57:18.853Z,103334.45
2023-02-09T08:59:47.130Z,103331.93
2023-02-09T09:02:15.515Z,103330.67
2023-02-09T09:04:43.994Z,103326.13
2023-02-09T09:07:12.371Z,103323.14
2023-02-09T09:09:40.545Z,103322.63
2023-02-09T09:12:08.924Z,103323.36
2023-02-09T09:14:38.033Z,103318.55
2023-02-09T09:17:06.401Z,103319.33
2023-02-09T09:19:35.086Z,103322.91
2023-02-09T09:22:03.882Z,103317.31
2023-02-09T09:24:32.869Z,103313.32
2023-02-09T09:27:01.461Z,103307.98
2023-02-09T09:29:29.636Z,103307.98
2023-02-09T09:31:57.814Z,103301.81
2023-02-09T09:34:26.521Z,103298.71
2023-02-09T09:36:54.772Z,103296.20
2023-02-09T09:39:23.145Z,103297.86
2023-02-09T09:41:57.673Z,103295.20
2023-02-09T09:44:41.311Z,103290.35
2023-02-09T09:47:16.238Z,103293.25
2023-02-09T09:49:44.922Z,103286.63
2023-02-09T09:52:24.829Z,103278.37
2023-02-09T09:54:53.354Z,103280.52
2023-02-09T09:57:27.696Z,103277.41
2023-02-09T09:59:56.983Z,103273.88
2023-02-09T10:02:34.609Z,103270.52
2023-02-09T10:05:15.216Z,103268.99
2023-02-09T10:07:49.962Z,103267.98
2023-02-09T10:10:57.388Z,103265.56
2023-02-09T10:13:44.694Z,103261.39
2023-02-09T10:16:20.263Z,103248.50
2023-02-09T10:18:51.589Z,103253.20
2023-02-09T10:21:19.954Z,103246.79
2023-02-09T10:24:10.455Z,103245.09
2023-02-09T10:26:40.803Z,103249.29
2023-02-09T10:29:12.134Z,103239.00
2023-02-09T10:31:43.414Z,103238.42
2023-02-09T10:34:16.671Z,103241.44
2023-02-09T10:36:54.687Z,103242.04
2023-02-09T10:39:29.402Z,103245.25
2023-02-09T10:42:16.320Z,103242.19
2023-02-09T10:44:49.856Z,103240.10
2023-02-09T10:47:19.009Z,103240.52
2023-02-09T10:50:15.237Z,103239.92
2023-02-09T10:52:59.720Z,103230.30
2023-02-09T10:55:37.909Z,103225.95
2023-02-09T10:58:11.334Z,103220.37
2023-02-09T11:00:42.444Z,103220.78
2023-02-09T11:03:18.195Z,103222.04
2023-02-09T11:05:48.010Z,103219.65
2023-02-09T11:08:24.651Z,103219.71
2023-02-09T11:10:55.838Z,103210.27
2023-02-09T11:13:26.675Z,103215.80
2023-02-09T11:16:19.812Z,103217.48
2023-02-09T11:19:11.352Z,103212.95
2023-02-09T11:21:48.536Z,103210.63
2023-02-09T11:24:43.523Z,103214.13
2023-02-09T11:27:23.427Z,103213.95
2023-02-09T11:30:23.349Z,103211.20
2023-02-09T11:33:11.245Z,103208.34
2023-02-09T11:36:13.722Z,103201.30
2023-02-09T11:38:53.060Z,103200.38
2023-02-09T11:42:14.994Z,103192.05
2023-02-09T11:44:56.585Z,103188.59
2023-02-09T11:47:46.170Z,103187.55
2023-02-09T11:50:44.573Z,103184.73
2023-02-09T11:53:23.363Z,103181.29
2023-02-09T11:55:57.898Z,103178.31
2023-02-09T11:58:49.109Z,103172.88
2023-02-09T12:01:55.062Z,103173.88
2023-02-09T12:04:31.886Z,103167.70
2023-02-09T12:07:05.338Z,103168.13
2023-02-09T12:09:36.891Z,103166.82
2023-02-09T12:12:23.807Z,103163.75
2023-02-09T12:15:18.200Z,103160.13
2023-02-09T12:17:53.214Z,103160.35
2023-02-09T12:20:21.510Z,103157.31
2023-02-09T12:23:02.815Z,103154.20
2023-02-09T12:25:51.417Z,103151.19
2023-02-09T12:28:32.774Z,103150.16
2023-02-09T12:31:03.197Z,103151.41
2023-02-09T12:34:00.712Z,103149.05
2023-02-09T12:36:33.371Z,103142.94
2023-02-09T12:39:06.192Z,103141.45
2023-02-09T12:41:34.479Z,103138.70
2023-02-09T12:44:11.941Z,103144.38
2023-02-09T12:46:48.615Z,103143.08
2023-02-09T12:49:38.805Z,103149.14
2023-02-09T12:52:16.504Z,103148.51
2023-02-09T12:54:57.687Z,103146.63
2023-02-09T12:57:26.371Z,103142.48
2023-02-09T12:59:59.762Z,103139.34
2023-02-09T13:02:38.588Z,103139.58
2023-02-09T13:05:24.894Z,103141.10
2023-02-09T13:08:12.010Z,103131.44
2023-02-09T13:10:49.107Z,103131.13
2023-02-09T13:13:33.152Z,103136.60
2023-02-09T13:16:01.527Z,103129.79
2023-02-09T13:19:08.201Z,103131.45
2023-02-09T13:21:45.594Z,103124.32
2023-02-09T13:24:19.849Z,103127.05
2023-02-09T13:26:57.407Z,103133.30
2023-02-09T13:29:27.966Z,103123.02
2023-02-09T13:32:11.372Z,103119.66
2023-02-09T13:34:46.811Z,103119.25
2023-02-09T13:37:36.496Z,103121.60
2023-02-09T13:40:24.841Z,103119.67
2023-02-09T13:42:54.750Z,103120.36
2023-02-09T13:45:24.280Z,103127.21
2023-02-09T13:47:53.351Z,103124.36
2023-02-09T13:50:24.299Z,103121.39
2023-02-09T13:52:52.566Z,103119.22
2023-02-09T13:55:24.501Z,103119.27
2023-02-09T13:58:05.371Z,103117.34
2023-02-09T14:00:41.578Z,103116.52
2023-02-09T14:03:18.240Z,103118.70
2023-02-09T14:06:01.899Z,103119.52
2023-02-09T14:08:32.710Z,103114.88
2023-02-09T14:11:41.989Z,103113.59
2023-02-09T14:14:16.806Z,103111.48
2023-02-09T14:16:53.444Z,103113.70
2023-02-09T14:19:31.204Z,103113.83
2023-02-09T14:22:00.411Z,103109.88
2023-02-09T14:24:44.291Z,103113.07
2023-02-09T14:27:24.098Z,103115.58
2023-02-09T14:29:53.640Z,103116.50
2023-02-09T14:32:33.340Z,103114.17
2023-02-09T14:35:23.676Z,103115.55
2023-02-09T14:37:57.767Z,103107.95
2023-02-09T14:40:29.868Z,103107.43
2023-02-09T14:43:10.325Z,103107.61
2023-02-09T14:45:45.863Z,103107.33
2023-02-09T14:48:27.255Z,103110.08
2023-02-09T14:50:59.536Z,103111.92
2023-02-09T14:53:31.323Z,103115.11
2023-02-09T14:56:00.182Z,103113.16
2023-02-09T14:58:31.606Z,103114.92
2023-02-09T15:01:02.896Z,103117.28
2023-02-09T15:03:31.160Z,103120.54
2023-02-09T15:06:02.609Z,103122.87
2023-02-09T15:08:35.478Z,103119.83
2023-02-09T15:11:26.087Z,103112.65
2023-02-09T15:14:03.915Z,103111.26
2023-02-09T15:16:32.878Z,103111.48
2023-02-09T15:19:05.458Z,103113.96
2023-02-09T15:21:34.041Z,103114.30
2023-02-09T15:24:02.730Z,103110.50
2023-02-09T15:26:34.750Z,103113.88
2023-02-09T15:29:09.898Z,103106.91
2023-02-09T15:31:38.165Z,103107.11
2023-02-09T15:34:06.888Z,103111.15
2023-02-09T15:36:35.212Z,103110.07
2023-02-09T15:39:04.627Z,103113.58
2023-02-09T15:41:51.480Z,103117.27
2023-02-09T15:44:40.034Z,103114.73
2023-02-09T15:47:27.460Z,103112.83
2023-02-09T15:49:55.742Z,103118.11
2023-02-09T15:52:24.406Z,103120.59
2023-02-09T15:54:53.518Z,103120.95
2023-02-09T15:57:25.315Z,103123.48
2023-02-09T15:59:53.555Z,103123.84
2023-02-09T16:02:22.564Z,103120.70
2023-02-09T16:04:50.933Z,103126.52
2023-02-09T16:07:25.385Z,103125.20
2023-02-09T16:09:53.951Z,103127.58
2023-02-09T16:12:22.472Z,103130.82
2023-02-09T16:14:53.075Z,103126.23
2023-02-09T16:17:21.631Z,103123.92
2023-02-09T16:19:49.701Z,103126.42
2023-02-09T16:22:22.790Z,103128.70
2023-02-09T16:24:51.476Z,103132.25
2023-02-09T16:27:25.386Z,103132.27
2023-02-09T16:29:54.792Z,103130.34
2023-02-09T16:32:24.688Z,103132.77
2023-02-09T16:34:52.883Z,103127.64
2023-02-09T16:37:32.119Z,103126.26
2023-02-09T16:40:01.825Z,103128.43
2023-02-09T16:42:30.001Z,103124.93
2023-02-09T16:44:58.488Z,103126.67
2023-02-09T16:47:28.506Z,103130.86
2023-02-09T16:49:59.259Z,103129.05
2023-02-09T16:52:30.431Z,103129.58
2023-02-09T16:55:01.137Z,103124.64
2023-02-09T16:57:29.504Z,103124.80
2023-02-09T16:59:57.920Z,103121.41
2023-02-09T17:02:40.952Z,103124.92
2023-02-09T17:05:44.084Z,103127.33
2023-02-09T17:08:16.362Z,103128.64
2023-02-09T17:10:46.396Z,103127.87
2023-02-09T17:13:17.622Z,103123.92
2023-02-09T17:15:52.007Z,103122.66
2023-02-09T17:18:29.639Z,103119.96
2023-02-09T17:21:00.065Z,103123.30
2023-02-09T17:23:29.979Z,103121.73
2023-02-09T17:25:58.872Z,103120.85
2023-02-09T17:28:28.229Z,103122.77
2023-02-09T17:31:02.291Z,103119.11
2023-02-09T17:33:33.616Z,103115.73
2023-02-09T17:38:52.353Z,103113.96
2023-02-09T17:41:24.577Z,103112.69
2023-02-09T17:43:53.775Z,103114.50
2023-02-09T17:46:22.914Z,103116.96
2023-02-09T17:48:51.349Z,103116.55
2023-02-09T17:51:23.539Z,103118.41
2023-02-09T17:53:51.901Z,103114.84
2023-02-09T17:56:20.078Z,103114.77
2023-02-09T17:58:48.558Z,103114.30
2023-02-09T18:01:28.890Z,103112.48
2023-02-09T18:04:00.040Z,103115.00
2023-02-09T18:06:36.228Z,103117.13
2023-02-09T18:09:07.620Z,103116.64
2023-02-09T18:11:45.165Z,103119.06
2023-02-09T18:14:17.396Z,103118.40
2023-02-09T18:16:47.190Z,103119.16
2023-02-09T18:19:18.396Z,103118.71
2023-02-09T18:21:54.966Z,103117.13
2023-02-09T18:24:25.286Z,103117.85
2023-02-09T18:26:53.676Z,103117.98
2023-02-09T18:29:23.871Z,103118.45
2023-02-09T18:31:52.268Z,103120.46
2023-02-09T18:34:20.542Z,103115.27
2023-02-09T18:36:49.260Z,103109.97
2023-02-09T18:39:17.846Z,103109.91
2023-02-09T18:41:51.413Z,103104.33
2023-02-09T18:44:28.724Z,103100.91
2023-02-09T18:47:00.673Z,103096.85
2023-02-09T18:49:29.668Z,103098.73
2023-02-09T18:51:59.660Z,103099.17
2023-02-09T18:54:29.291Z,103101.52
2023-02-09T18:56:57.592Z,103103.70
2023-02-09T18:59:32.601Z,103104.13
2023-02-09T19:02:01.235Z,103103.73
2023-02-09T19:04:29.668Z,103103.52
2023-02-09T19:06:58.764Z,103103.37
2023-02-09T19:09:27.036Z,103097.23
2023-02-09T19:11:55.418Z,103098.02
2023-02-09T19:14:39.359Z,103090.54
2023-02-09T19:17:14.965Z,103094.32
2023-02-09T19:19:44.808Z,103085.81
2023-02-09T19:22:21.499Z,103082.44
2023-02-09T19:24:52.979Z,103084.80
2023-02-09T19:27:21.777Z,103085.14
2023-02-09T19:29:56.558Z,103085.77
2023-02-09T19:32:26.602Z,103089.93
2023-02-09T19:34:54.863Z,103091.61
2023-02-09T19:37:23.342Z,103091.31
2023-02-09T19:40:04.199Z,103085.55
2023-02-09T19:42:33.665Z,103080.02
2023-02-09T19:45:02.436Z,103074.65
2023-02-09T19:47:30.580Z,103075.08
2023-02-09T19:49:58.856Z,103072.69
2023-02-09T19:52:28.169Z,103074.20
2023-02-09T19:54:57.948Z,103071.68
2023-02-09T19:57:26.977Z,103072.13
2023-02-09T19:59:55.654Z,103070.89
2023-02-09T20:02:23.956Z,103067.73
2023-02-09T20:04:52.798Z,103065.96
2023-02-09T20:07:22.120Z,103062.24
2023-02-09T20:09:52.486Z,103061.73
2023-02-09T20:12:22.194Z,103064.55
2023-02-09T20:14:51.014Z,103064.25
2023-02-09T20:19:52.476Z,103060.45
2023-02-09T20:22:21.711Z,103055.61
2023-02-09T20:24:50.117Z,103056.12
2023-02-09T20:27:19.294Z,103058.80
2023-02-09T20:29:47.668Z,103055.23
2023-02-09T20:32:16.153Z,103056.11
2023-02-09T20:34:44.285Z,103055.73
2023-02-09T20:37:12.804Z,103056.45
2023-02-09T20:39:40.879Z,103058.48
2023-02-09T20:42:28.097Z,103059.48
2023-02-09T20:45:15.121Z,103057.72
2023-02-09T20:47:43.706Z,103054.91
2023-02-09T20:50:13.925Z,103051.13
2023-02-09T20:52:42.543Z,103050.25
2023-02-09T20:55:10.611Z,103052.69
2023-02-09T20:57:38.958Z,103053.45
2023-02-09T21:00:09.753Z,103050.59
2023-02-09T21:02:38.694Z,103047.33
2023-02-09T21:05:07.574Z,103049.61
2023-02-09T21:07:36.176Z,103048.81
2023-02-09T21:10:04.499Z,103041.95
2023-02-09T21:12:32.919Z,103041.67
2023-02-09T21:15:01.911Z,103040.56
2023-02-09T21:17:30.189Z,103036.48
2023-02-09T21:19:58.564Z,103030.69
2023-02-09T21:22:26.949Z,103032.37
2023-02-09T21:24:55.125Z,103031.66
2023-02-09T21:27:26.182Z,103034.79
2023-02-09T21:29:54.743Z,103037.42
2023-02-09T21:32:23.033Z,103037.12
2023-02-09T21:34:51.408Z,103032.34
2023-02-09T21:37:19.782Z,103036.64
2023-02-09T21:39:48.160Z,103037.05
2023-02-09T21:42:28.932Z,103038.71
2023-02-09T21:44:58.691Z,103032.98
2023-02-09T21:47:33.361Z,103037.79
2023-02-09T21:50:02.047Z,103040.58
2023-02-09T21:52:31.657Z,103041.82
2023-02-09T21:55:00.799Z,103039.34
2023-02-09T21:57:29.750Z,103042.25
2023-02-09T21:59:59.162Z,103045.77
2023-02-09T22:02:27.645Z,103044.69
2023-02-09T22:04:56.212Z,103046.58
2023-02-09T22:07:24.592Z,103047.24
2023-02-09T22:09:52.869Z,103044.36
2023-02-09T22:12:21.245Z,103039.66
2023-02-09T22:14:49.731Z,103046.07
2023-02-09T22:17:18.105Z,103048.66
2023-02-09T22:19:46.380Z,103049.77
2023-02-09T22:22:14.560Z,103047.50
2023-02-09T22:24:43.036Z,103045.75
2023-02-09T22:27:11.213Z,103044.71
2023-02-09T22:29:39.606Z,103048.69
2023-02-09T22:32:08.072Z,103044.72
2023-02-09T22:34:36.656Z,103046.36
2023-02-09T22:37:04.978Z,103047.00
2023-02-09T22:39:33.312Z,103043.73
2023-02-09T22:42:01.690Z,103043.95
2023-02-09T22:44:30.708Z,103037.72
2023-02-09T22:46:58.859Z,103030.26
2023-02-09T22:49:28.270Z,103033.64
2023-02-09T22:51:56.371Z,103031.00
2023-02-09T22:54:25.055Z,103035.02
2023-02-09T22:56:53.507Z,103028.63
2023-02-09T22:59:21.788Z,103026.34
2023-02-09T23:01:50.165Z,103027.18
2023-02-09T23:04:18.703Z,103027.43
2023-02-09T23:06:47.544Z,103024.15
2023-02-09T23:09:16.842Z,103026.63
2023-02-09T23:11:45.331Z,103024.48
2023-02-09T23:14:13.812Z,103013.95
2023-02-09T23:16:44.858Z,103013.02
2023-02-09T23:19:16.739Z,103015.77
2023-02-09T23:21:47.918Z,103010.27
2023-02-09T23:24:18.391Z,103011.57
2023-02-09T23:26:46.668Z,103012.06
2023-02-09T23:29:16.474Z,103007.42
2023-02-09T23:31:46.119Z,103005.68
2023-02-09T23:34:17.649Z,103011.03
2023-02-09T23:36:46.623Z,103013.74
2023-02-09T23:39:18.362Z,103010.60
2023-02-09T23:41:47.396Z,103007.20
2023-02-09T23:44:15.962Z,103009.64
2023-02-09T23:46:44.986Z,103008.89
2023-02-09T23:49:13.335Z,103012.48
2023-02-09T23:51:42.028Z,103014.15
2023-02-09T23:54:11.054Z,103008.68
2023-02-09T23:56:39.318Z,103010.42
2023-02-09T23:59:13.141Z,103008.12
